Time;durP1;ratioP1;P1;durP2;ratioP2;P2;SDS_P1;SDS_P2;PMS_P1;PMS_P2;Temp;Humidity;BMP_temperature;BMP_pressure;BME280_temperature;BME280_humidity;BME280_pressure;Samples;Min_cycle;Max_cycle;Signal;HPM_P1;HPM_P2
2024/02/14 00:00:36;;;;;;;2.55;1.80;;;7.80;99.90;;;;;;4876064;29;20025;-77
2024/02/14 00:03:02;;;;;;;4.65;2.30;;;7.70;99.90;;;;;;4876645;29;20081;-78
2024/02/14 00:05:28;;;;;;;2.55;1.95;;;7.70;99.90;;;;;;4876688;29;20040;-78
2024/02/14 00:07:54;;;;;;;2.03;1.85;;;7.70;99.90;;;;;;4902800;29;20024;-77
2024/02/14 00:10:20;;;;;;;2.45;2.30;;;7.70;99.90;;;;;;4898973;29;20047;-79
2024/02/14 00:12:47;;;;;;;2.03;1.83;;;7.70;99.90;;;;;;4878617;29;20029;-79
2024/02/14 00:15:13;;;;;;;2.13;1.92;;;7.60;99.90;;;;;;4886816;29;20040;-79
2024/02/14 00:17:38;;;;;;;3.53;1.80;;;7.60;99.90;;;;;;4877726;29;20033;-79
2024/02/14 00:20:05;;;;;;;2.00;1.90;;;7.60;99.90;;;;;;4870529;29;20498;-79
2024/02/14 00:22:31;;;;;;;3.58;2.33;;;7.60;99.90;;;;;;4877135;29;20515;-80
2024/02/14 00:24:57;;;;;;;2.63;1.90;;;7.50;99.90;;;;;;4884626;29;20476;-79
2024/02/14 00:27:24;;;;;;;1.90;1.77;;;7.50;1.00;;;;;;4887884;29;20036;-80
2024/02/14 00:29:50;;;;;;;2.35;2.20;;;7.60;99.90;;;;;;4885586;29;20040;-80
2024/02/14 00:32:15;;;;;;;2.20;2.00;;;7.50;1.00;;;;;;4872067;29;20380;-80
2024/02/14 00:34:41;;;;;;;3.97;2.00;;;7.50;99.90;;;;;;4885453;29;20029;-80
2024/02/14 00:37:08;;;;;;;4.07;2.20;;;7.50;99.90;;;;;;4888191;29;20387;-80
2024/02/14 00:39:34;;;;;;;2.83;1.85;;;7.50;99.90;;;;;;4888231;29;20037;-80
2024/02/14 00:41:59;;;;;;;2.80;2.10;;;7.50;99.90;;;;;;4884914;29;20033;-80
2024/02/14 00:44:25;;;;;;;1.75;1.65;;;7.50;99.90;;;;;;4883907;29;20436;-80
2024/02/14 00:47:02;;;;;;;2.10;1.90;;;7.50;99.90;;;;;;4885416;29;20025;-80
2024/02/14 00:49:28;;;;;;;3.10;2.20;;;7.50;99.90;;;;;;4885436;29;20495;-80
2024/02/14 00:51:54;;;;;;;2.72;1.70;;;7.50;99.90;;;;;;4885069;29;20025;-80
2024/02/14 00:54:20;;;;;;;3.70;2.00;;;7.40;99.90;;;;;;4888379;29;20052;-80
2024/02/14 00:56:45;;;;;;;1.70;1.60;;;7.50;99.90;;;;;;4884778;29;20036;-80
2024/02/14 00:59:14;;;;;;;2.03;1.73;;;7.50;99.90;;;;;;4885810;29;20033;-80
2024/02/14 01:01:40;;;;;;;1.83;1.60;;;7.40;99.90;;;;;;4877804;29;20081;-80
2024/02/14 01:04:05;;;;;;;1.70;1.60;;;7.50;99.90;;;;;;4877475;29;20024;-80
2024/02/14 01:06:31;;;;;;;2.38;1.95;;;7.50;99.90;;;;;;4886853;29;20089;-80
2024/02/14 01:08:57;;;;;;;1.70;1.60;;;7.50;99.90;;;;;;4886323;29;20036;-80
2024/02/14 01:11:22;;;;;;;1.90;1.80;;;7.40;99.90;;;;;;4884295;29;20036;-80
2024/02/14 01:13:48;;;;;;;1.77;1.67;;;7.40;99.90;;;;;;4885825;29;20116;-80
2024/02/14 01:16:14;;;;;;;2.13;1.70;;;7.40;99.90;;;;;;4887826;29;20025;-80
2024/02/14 01:18:40;;;;;;;1.98;1.60;;;7.40;99.90;;;;;;4875836;29;20036;-80
2024/02/14 01:21:06;;;;;;;2.00;1.73;;;7.40;99.90;;;;;;4887128;29;20032;-80
2024/02/14 01:23:32;;;;;;;2.95;1.80;;;7.40;99.90;;;;;;4884815;29;20048;-80
2024/02/14 01:25:58;;;;;;;2.10;1.75;;;7.40;99.90;;;;;;4887823;29;20367;-80
2024/02/14 01:28:24;;;;;;;3.00;1.73;;;7.40;99.90;;;;;;4887517;29;20036;-80
2024/02/14 01:30:51;;;;;;;1.70;1.60;;;7.40;99.90;;;;;;4884715;29;20036;-80
2024/02/14 01:33:16;;;;;;;3.10;2.05;;;7.40;99.90;;;;;;4886222;29;20503;-80
2024/02/14 01:35:42;;;;;;;1.83;1.65;;;7.40;99.90;;;;;;4886743;29;20040;-80
2024/02/14 01:38:08;;;;;;;2.60;1.90;;;7.40;99.90;;;;;;4889005;29;20112;-80
2024/02/14 01:40:33;;;;;;;2.05;1.95;;;7.40;99.90;;;;;;4879502;29;20033;-80
2024/02/14 01:43:00;;;;;;;1.73;1.60;;;7.40;99.90;;;;;;4879663;29;20093;-81
2024/02/14 01:45:27;;;;;;;1.80;1.70;;;7.40;99.90;;;;;;4886532;29;20041;-80
2024/02/14 01:47:55;;;;;;;3.78;2.13;;;7.40;99.90;;;;;;4891196;29;20034;-80
2024/02/14 01:50:28;;;;;;;3.58;1.70;;;7.40;99.90;;;;;;4887752;29;20036;-80
2024/02/14 01:52:55;;;;;;;1.80;1.70;;;7.40;99.90;;;;;;4890120;29;20059;-80
2024/02/14 01:55:21;;;;;;;1.60;1.50;;;7.40;99.90;;;;;;4870660;29;20400;-81
2024/02/14 01:57:48;;;;;;;1.88;1.77;;;7.40;99.90;;;;;;4889782;29;20033;-80
2024/02/14 02:00:17;;;;;;;3.33;1.88;;;7.40;99.90;;;;;;4888895;29;20064;-80
2024/02/14 02:02:44;;;;;;;1.83;1.73;;;7.40;99.90;;;;;;4894659;29;20524;-80
2024/02/14 02:05:10;;;;;;;2.08;1.98;;;7.40;99.90;;;;;;4887605;29;20393;-80
2024/02/14 02:07:39;;;;;;;6.20;2.83;;;7.40;99.90;;;;;;4870819;29;20029;-80
2024/02/14 02:10:06;;;;;;;2.45;2.25;;;7.50;99.90;;;;;;4889751;29;20052;-80
2024/02/14 02:12:32;;;;;;;4.90;2.22;;;7.40;99.90;;;;;;4887225;29;20033;-80
2024/02/14 02:14:58;;;;;;;1.95;1.85;;;7.50;99.90;;;;;;4896613;29;20020;-80
2024/02/14 02:17:24;;;;;;;1.80;1.58;;;7.50;99.90;;;;;;4888891;29;20388;-80
2024/02/14 02:19:50;;;;;;;3.08;1.77;;;7.50;99.90;;;;;;4889380;29;20029;-80
2024/02/14 02:22:15;;;;;;;2.88;1.80;;;7.50;99.90;;;;;;4888252;29;20460;-80
2024/02/14 02:24:45;;;;;;;1.90;1.45;;;7.50;99.90;;;;;;4887070;29;20111;-80
2024/02/14 02:27:13;;;;;;;2.10;2.00;;;7.50;99.90;;;;;;4890427;29;20025;-80
2024/02/14 02:29:39;;;;;;;1.98;1.42;;;7.50;99.90;;;;;;4887540;29;20471;-80
2024/02/14 02:32:06;;;;;;;1.67;1.58;;;7.50;99.90;;;;;;4880619;29;20039;-80
2024/02/14 02:34:32;;;;;;;2.90;1.65;;;7.50;99.90;;;;;;4888010;29;20029;-80
2024/02/14 02:36:57;;;;;;;1.75;1.60;;;7.50;99.90;;;;;;4889112;29;20032;-80
2024/02/14 02:39:23;;;;;;;2.22;1.73;;;7.50;99.90;;;;;;4886347;29;20067;-80
2024/02/14 02:41:49;;;;;;;1.67;1.58;;;7.50;99.90;;;;;;4873327;29;20052;-80
2024/02/14 02:44:15;;;;;;;2.17;1.50;;;7.50;99.90;;;;;;4889178;29;20077;-80
2024/02/14 02:46:41;;;;;;;2.20;1.45;;;7.50;99.90;;;;;;4887827;29;20033;-80
2024/02/14 02:49:07;;;;;;;1.67;1.55;;;7.50;99.90;;;;;;4889461;29;20092;-80
2024/02/14 02:51:33;;;;;;;1.60;1.50;;;7.60;99.90;;;;;;4887329;29;20029;-80
2024/02/14 02:53:59;;;;;;;2.10;1.63;;;7.50;99.90;;;;;;4873267;29;20533;-80
2024/02/14 02:56:27;;;;;;;2.92;1.50;;;7.60;99.90;;;;;;4889046;29;20031;-80
2024/02/14 02:58:54;;;;;;;1.85;1.20;;;7.60;99.90;;;;;;4887025;29;20021;-80
2024/02/14 03:01:20;;;;;;;1.73;1.63;;;7.60;99.90;;;;;;4885424;29;20049;-80
2024/02/14 03:03:46;;;;;;;1.50;1.30;;;7.60;99.90;;;;;;4887780;29;20033;-81
2024/02/14 03:06:12;;;;;;;1.58;1.38;;;7.60;99.90;;;;;;4890314;29;20025;-80
2024/02/14 03:08:38;;;;;;;1.42;1.30;;;7.50;99.90;;;;;;4888142;29;20028;-80
2024/02/14 03:11:07;;;;;;;1.17;1.17;;;7.50;99.90;;;;;;4886101;29;20028;-80
2024/02/14 03:13:33;;;;;;;2.55;1.73;;;7.50;99.90;;;;;;4889208;29;20124;-81
2024/02/14 03:15:59;;;;;;;1.33;1.23;;;7.50;99.90;;;;;;4886856;29;20123;-81
2024/02/14 03:18:25;;;;;;;1.50;1.40;;;7.50;99.90;;;;;;4889632;29;20140;-80
2024/02/14 03:20:53;;;;;;;1.33;1.23;;;7.50;99.90;;;;;;4869283;29;20037;-80
2024/02/14 03:23:19;;;;;;;1.40;1.30;;;7.50;99.90;;;;;;4889049;29;20056;-80
2024/02/14 03:25:44;;;;;;;1.20;1.10;;;7.50;99.90;;;;;;4886844;29;20034;-80
2024/02/14 03:28:13;;;;;;;3.38;1.50;;;7.50;99.90;;;;;;4891654;29;20084;-80
2024/02/14 03:30:41;;;;;;;2.80;1.40;;;7.50;99.90;;;;;;4887873;29;20032;-80
2024/02/14 03:33:10;;;;;;;2.35;1.23;;;7.50;99.90;;;;;;4888389;29;20041;-80
2024/02/14 03:35:36;;;;;;;2.92;1.35;;;7.60;99.90;;;;;;4877170;29;20082;-80
2024/02/14 03:38:03;;;;;;;1.30;1.27;;;7.60;99.90;;;;;;4888917;29;20029;-80
2024/02/14 03:40:30;;;;;;;5.07;1.33;;;7.60;99.90;;;;;;4885526;29;20487;-81
2024/02/14 03:42:56;;;;;;;2.25;1.45;;;7.60;99.90;;;;;;4889072;29;20016;-80
2024/02/14 03:45:22;;;;;;;1.38;1.27;;;7.60;99.90;;;;;;4886471;29;20392;-80
2024/02/14 03:47:48;;;;;;;1.60;1.50;;;7.60;99.90;;;;;;4888272;29;20025;-80
2024/02/14 03:50:15;;;;;;;2.78;1.02;;;7.60;99.90;;;;;;4887101;29;20160;-80
2024/02/14 03:52:42;;;;;;;2.17;1.67;;;7.60;99.90;;;;;;4877996;29;20080;-80
2024/02/14 03:55:13;;;;;;;1.35;1.20;;;7.60;99.90;;;;;;4886396;29;20223;-80
2024/02/14 03:57:39;;;;;;;2.57;1.20;;;7.70;99.90;;;;;;4885976;29;20029;-80
2024/02/14 04:00:10;;;;;;;2.25;1.40;;;7.60;99.90;;;;;;4868502;29;20033;-80
2024/02/14 04:02:35;;;;;;;1.50;1.27;;;7.70;99.90;;;;;;4869447;29;20377;-80
2024/02/14 04:05:05;;;;;;;1.63;1.40;;;7.60;99.90;;;;;;4888139;29;20091;-81
2024/02/14 04:07:31;;;;;;;1.50;1.40;;;7.60;99.90;;;;;;4887143;29;20033;-81
2024/02/14 04:09:57;;;;;;;1.67;1.40;;;7.60;99.90;;;;;;4884448;29;20095;-80
2024/02/14 04:12:23;;;;;;;2.10;1.30;;;7.60;99.90;;;;;;4886303;29;20112;-80
2024/02/14 04:14:49;;;;;;;1.95;1.60;;;7.60;99.90;;;;;;4876802;29;20119;-80
2024/02/14 04:17:17;;;;;;;1.23;1.10;;;7.60;99.90;;;;;;4876956;29;20029;-80
2024/02/14 04:19:42;;;;;;;1.83;1.30;;;7.60;99.90;;;;;;4885176;29;20081;-80
2024/02/14 04:22:08;;;;;;;1.27;1.00;;;7.60;99.90;;;;;;4888488;29;20056;-80
2024/02/14 04:24:34;;;;;;;3.50;1.38;;;7.60;99.90;;;;;;4884933;29;20032;-81
2024/02/14 04:27:02;;;;;;;8.23;1.40;;;7.60;99.90;;;;;;4877816;29;20028;-80
2024/02/14 04:29:30;;;;;;;1.08;1.08;;;7.60;99.90;;;;;;4888112;29;20039;-80
2024/02/14 04:31:59;;;;;;;1.65;1.40;;;7.50;99.90;;;;;;4884805;29;20033;-80
2024/02/14 04:34:29;;;;;;;2.35;1.40;;;7.50;99.90;;;;;;4876298;29;20029;-80
2024/02/14 04:36:56;;;;;;;2.22;1.58;;;7.50;99.90;;;;;;4884119;29;20025;-80
2024/02/14 04:39:22;;;;;;;1.20;1.20;;;7.50;99.90;;;;;;4870912;29;20060;-80
2024/02/14 04:41:49;;;;;;;1.63;1.52;;;7.50;99.90;;;;;;4884129;29;20075;-80
2024/02/14 04:44:15;;;;;;;1.50;1.40;;;7.50;99.90;;;;;;4869392;29;20029;-80
2024/02/14 04:46:43;;;;;;;3.15;1.40;;;7.50;99.90;;;;;;4876599;29;20048;-80
2024/02/14 04:49:09;;;;;;;3.22;1.77;;;7.50;99.90;;;;;;4886421;29;20395;-80
2024/02/14 04:51:38;;;;;;;2.40;1.40;;;7.40;99.90;;;;;;4886055;29;20025;-80
2024/02/14 04:54:05;;;;;;;1.63;1.45;;;7.40;99.90;;;;;;4885169;29;20120;-81
2024/02/14 04:56:31;;;;;;;1.70;1.60;;;7.30;1.00;;;;;;4883885;29;20033;-80
2024/02/14 04:58:57;;;;;;;2.75;1.70;;;7.30;99.90;;;;;;4886055;29;20415;-80
2024/02/14 05:01:22;;;;;;;2.83;1.80;;;7.30;1.00;;;;;;4875282;29;20040;-80
2024/02/14 05:03:49;;;;;;;5.25;1.67;;;7.30;1.00;;;;;;4868083;29;20059;-80
2024/02/14 05:06:15;;;;;;;2.10;1.88;;;7.30;1.00;;;;;;4877753;29;20025;-80
2024/02/14 05:08:41;;;;;;;2.72;1.50;;;7.20;1.00;;;;;;4884806;29;20499;-80
2024/02/14 05:11:07;;;;;;;1.80;1.70;;;7.20;1.00;;;;;;4872510;29;20053;-80
2024/02/14 05:13:33;;;;;;;3.85;2.50;;;7.20;1.00;;;;;;4880164;29;20376;-80
2024/02/14 05:16:02;;;;;;;2.22;1.85;;;7.20;1.00;;;;;;4887411;29;20040;-80
2024/02/14 05:18:27;;;;;;;2.88;2.08;;;7.10;1.00;;;;;;4878971;29;20040;-80
2024/02/14 05:20:53;;;;;;;2.75;2.38;;;7.10;1.00;;;;;;4889734;29;20031;-80
2024/02/14 05:23:19;;;;;;;6.40;2.60;;;7.00;1.00;;;;;;4785098;29;3148560;-80
2024/02/14 05:25:45;;;;;;;2.60;2.28;;;7.00;1.00;;;;;;4882454;29;20036;-81
2024/02/14 05:28:14;;;;;;;4.78;2.28;;;7.00;1.00;;;;;;4888382;29;20033;-80
2024/02/14 05:30:40;;;;;;;3.13;2.92;;;7.00;1.00;;;;;;4887453;29;20033;-80
2024/02/14 05:33:06;;;;;;;3.47;2.67;;;7.00;1.00;;;;;;4891920;29;20052;-81
2024/02/14 05:35:32;;;;;;;5.35;3.33;;;6.90;1.00;;;;;;4890723;29;20064;-80
2024/02/14 05:37:58;;;;;;;4.28;3.90;;;6.80;1.00;;;;;;4891859;29;20029;-80
2024/02/14 05:40:24;;;;;;;6.07;3.58;;;6.80;1.00;;;;;;4889506;29;20025;-80
2024/02/14 05:42:50;;;;;;;3.72;3.38;;;6.80;1.00;;;;;;4889555;29;20431;-80
2024/02/14 05:45:15;;;;;;;4.00;3.03;;;6.80;1.00;;;;;;4891563;29;20025;-80
2024/02/14 05:47:43;;;;;;;2.60;2.40;;;6.80;1.00;;;;;;4873377;29;20038;-81
2024/02/14 05:50:11;;;;;;;4.22;2.83;;;6.80;1.00;;;;;;4881345;29;20029;-80
2024/02/14 05:52:37;;;;;;;6.32;3.20;;;6.80;1.00;;;;;;4891165;29;20088;-80
2024/02/14 05:55:03;;;;;;;6.95;3.28;;;6.80;1.00;;;;;;4890080;29;20495;-80
2024/02/14 05:57:29;;;;;;;3.08;2.78;;;6.70;1.00;;;;;;4886581;29;20033;-80
2024/02/14 05:59:55;;;;;;;4.40;3.08;;;6.70;1.00;;;;;;4890587;29;20045;-80
2024/02/14 06:02:21;;;;;;;9.27;4.40;;;6.70;1.00;;;;;;4887537;29;20408;-80
2024/02/14 06:04:47;;;;;;;4.97;3.80;;;6.70;1.00;;;;;;4891083;29;20025;-80
2024/02/14 06:07:12;;;;;;;6.88;3.83;;;6.70;1.00;;;;;;4872203;29;20267;-80
2024/02/14 06:09:38;;;;;;;4.78;3.50;;;6.70;1.00;;;;;;4889357;29;20091;-80
2024/02/14 06:12:06;;;;;;;5.72;3.75;;;6.70;1.00;;;;;;4889476;29;20029;-80
2024/02/14 06:14:33;;;;;;;4.93;3.10;;;6.70;1.00;;;;;;4889805;29;20491;-81
2024/02/14 06:17:00;;;;;;;4.18;3.38;;;6.70;1.00;;;;;;4894333;29;20503;-80
2024/02/14 06:19:26;;;;;;;10.00;3.58;;;6.70;1.00;;;;;;4874127;29;20131;-80
2024/02/14 06:21:52;;;;;;;4.93;3.80;;;6.70;1.00;;;;;;4890683;29;20508;-80
2024/02/14 06:24:18;;;;;;;4.18;3.20;;;6.70;1.00;;;;;;4872881;29;20122;-80
2024/02/14 06:26:45;;;;;;;4.05;3.75;;;6.70;1.00;;;;;;4871007;29;20396;-80
2024/02/14 06:29:11;;;;;;;4.30;3.35;;;6.70;1.00;;;;;;4889667;29;20035;-80
2024/02/14 06:31:36;;;;;;;3.65;3.40;;;6.70;1.00;;;;;;4887201;29;20025;-80
2024/02/14 06:34:02;;;;;;;4.63;3.35;;;6.70;1.00;;;;;;4889012;29;20032;-80
2024/02/14 06:36:28;;;;;;;5.05;3.80;;;6.70;1.00;;;;;;4888874;29;20033;-80
2024/02/14 06:38:53;;;;;;;3.70;3.30;;;6.70;1.00;;;;;;4878957;29;20130;-80
2024/02/14 06:41:22;;;;;;;5.97;3.63;;;6.70;1.00;;;;;;4882045;29;20031;-80
2024/02/14 06:43:48;;;;;;;6.68;3.90;;;6.70;1.00;;;;;;4889675;29;20025;-80
2024/02/14 06:46:14;;;;;;;3.78;3.40;;;6.70;1.00;;;;;;4887092;29;20231;-81
2024/02/14 06:48:40;;;;;;;6.60;3.35;;;6.70;1.00;;;;;;4885412;29;20032;-80
2024/02/14 06:51:07;;;;;;;11.75;3.25;;;6.70;1.00;;;;;;4887007;29;20436;-80
2024/02/14 06:53:32;;;;;;;11.40;3.78;;;6.70;99.90;;;;;;4885211;29;20514;-80
2024/02/14 06:55:58;;;;;;;7.53;3.40;;;6.70;1.00;;;;;;4879849;29;20032;-80
2024/02/14 06:58:24;;;;;;;5.57;3.13;;;6.70;1.00;;;;;;4885156;29;20032;-80
2024/02/14 07:00:50;;;;;;;3.58;3.28;;;6.70;99.90;;;;;;4885351;29;20036;-80
2024/02/14 07:03:15;;;;;;;4.50;2.78;;;6.70;99.90;;;;;;4886261;29;20072;-80
2024/02/14 07:05:41;;;;;;;3.53;3.00;;;6.80;1.00;;;;;;4886022;29;20111;-80
2024/02/14 07:08:07;;;;;;;3.22;2.85;;;6.80;1.00;;;;;;4884522;29;20032;-80
2024/02/14 07:10:33;;;;;;;4.90;3.10;;;6.80;99.90;;;;;;4889826;29;20033;-80
2024/02/14 07:12:59;;;;;;;5.15;2.92;;;6.90;99.90;;;;;;4882974;29;20532;-80
2024/02/14 07:15:28;;;;;;;3.10;2.80;;;6.90;1.00;;;;;;4887907;29;20040;-80
2024/02/14 07:17:55;;;;;;;7.07;3.15;;;6.90;99.90;;;;;;4876584;29;20061;-80
2024/02/14 07:20:21;;;;;;;2.65;2.45;;;6.90;99.90;;;;;;4885798;29;20029;-80
2024/02/14 07:22:47;;;;;;;7.25;3.13;;;7.00;99.90;;;;;;4872101;29;20057;-80
2024/02/14 07:25:16;;;;;;;4.68;3.38;;;7.00;99.90;;;;;;4887254;29;20029;-80
2024/02/14 07:27:41;;;;;;;5.50;2.92;;;7.00;99.90;;;;;;4887818;29;20439;-80
2024/02/14 07:30:08;;;;;;;6.32;3.10;;;7.00;99.90;;;;;;4870840;29;20153;-80
2024/02/14 07:32:33;;;;;;;3.90;2.90;;;7.10;99.90;;;;;;4888132;29;20484;-80
2024/02/14 07:34:59;;;;;;;2.97;2.65;;;7.00;99.90;;;;;;4879591;29;20039;-80
2024/02/14 07:37:25;;;;;;;4.88;2.75;;;7.10;99.90;;;;;;4869674;29;20045;-80
2024/02/14 07:39:51;;;;;;;3.00;2.33;;;7.10;99.90;;;;;;4885755;29;20101;-80
2024/02/14 07:42:17;;;;;;;4.82;2.75;;;7.10;99.90;;;;;;4889211;29;20073;-80
2024/02/14 07:44:42;;;;;;;4.05;2.75;;;7.10;99.90;;;;;;4877184;29;20025;-81
2024/02/14 07:47:08;;;;;;;4.70;2.80;;;7.20;99.90;;;;;;4889011;29;20084;-81
2024/02/14 07:49:34;;;;;;;3.25;2.92;;;7.20;1.00;;;;;;4885563;29;20438;-80
2024/02/14 07:52:00;;;;;;;4.03;2.70;;;7.30;1.00;;;;;;4889381;29;20118;-81
2024/02/14 07:54:25;;;;;;;3.95;3.10;;;7.30;1.00;;;;;;4886731;29;20025;-80
2024/02/14 07:56:51;;;;;;;9.50;3.13;;;7.40;1.00;;;;;;4887612;29;20025;-80
2024/02/14 07:59:17;;;;;;;4.82;2.97;;;7.40;1.00;;;;;;4889128;29;20028;-80
2024/02/14 08:01:43;;;;;;;5.45;3.30;;;7.50;1.00;;;;;;4888946;29;20029;-81
2024/02/14 08:04:09;;;;;;;5.88;3.25;;;7.50;1.00;;;;;;4885546;29;20013;-81
2024/02/14 08:06:35;;;;;;;5.10;3.50;;;7.60;99.90;;;;;;4871130;29;20458;-81
2024/02/14 08:09:02;;;;;;;5.25;3.63;;;7.60;1.00;;;;;;4877181;29;20056;-80
2024/02/14 08:11:29;;;;;;;4.28;3.35;;;7.60;1.00;;;;;;4887125;29;20052;-79
2024/02/14 08:13:54;;;;;;;6.38;3.38;;;7.60;1.00;;;;;;4879744;29;20033;-79
2024/02/14 08:16:20;;;;;;;7.75;3.65;;;7.70;1.00;;;;;;4881198;29;20040;-79
2024/02/14 08:18:48;;;;;;;4.00;3.50;;;7.70;1.00;;;;;;4884481;29;20068;-79
2024/02/14 08:21:14;;;;;;;7.78;4.05;;;7.80;1.00;;;;;;4881568;29;20124;-79
2024/02/14 08:23:41;;;;;;;16.48;4.70;;;7.80;1.00;;;;;;4885301;29;20616;-79
2024/02/14 08:26:10;;;;;;;6.43;3.65;;;7.90;1.00;;;;;;4873751;29;20240;-78
2024/02/14 08:28:37;;;;;;;6.53;3.88;;;7.90;1.00;;;;;;4872444;29;20079;-79
2024/02/14 08:31:03;;;;;;;7.93;3.83;;;8.00;1.00;;;;;;4884152;29;20036;-79
2024/02/14 08:33:28;;;;;;;9.57;3.97;;;8.10;1.00;;;;;;4872331;29;20029;-79
2024/02/14 08:35:57;;;;;;;6.53;4.05;;;8.10;1.00;;;;;;4882804;29;20037;-79
2024/02/14 08:38:23;;;;;;;7.28;4.38;;;8.20;1.00;;;;;;4881763;29;20032;-79
2024/02/14 08:40:48;;;;;;;5.47;4.60;;;8.20;99.90;;;;;;4881799;29;20391;-79
2024/02/14 08:43:14;;;;;;;8.98;5.28;;;8.30;1.00;;;;;;4881664;29;20025;-79
2024/02/14 08:45:40;;;;;;;5.85;4.47;;;8.40;99.90;;;;;;4883620;29;20089;-79
2024/02/14 08:48:07;;;;;;;6.93;5.20;;;8.40;99.90;;;;;;4866733;29;20040;-78
2024/02/14 08:50:32;;;;;;;8.57;5.82;;;8.40;99.90;;;;;;4891164;29;20044;-78
2024/02/14 08:52:58;;;;;;;11.15;6.18;;;8.40;99.90;;;;;;4886631;29;20406;-78
2024/02/14 08:55:24;;;;;;;8.88;6.03;;;8.50;99.90;;;;;;4885705;29;20029;-78
2024/02/14 08:57:49;;;;;;;10.98;7.80;;;8.50;99.90;;;;;;4870161;29;20033;-78
2024/02/14 09:00:19;;;;;;;9.63;7.60;;;8.50;1.00;;;;;;4875191;29;20025;-78
2024/02/14 09:02:46;;;;;;;14.65;10.85;;;8.50;1.00;;;;;;4888113;29;20024;-78
2024/02/14 09:05:12;;;;;;;22.65;14.20;;;8.50;1.00;;;;;;4878720;29;20072;-79
2024/02/14 09:07:38;;;;;;;26.10;17.05;;;8.60;1.00;;;;;;4883098;29;20036;-79
2024/02/14 09:10:06;;;;;;;36.40;21.40;;;8.70;1.00;;;;;;4886981;29;20029;-79
2024/02/14 09:12:32;;;;;;;35.10;22.40;;;8.90;3.50;;;;;;4878021;29;20059;-78
2024/02/14 09:14:58;;;;;;;34.63;23.25;;;9.00;5.90;;;;;;4868788;29;20403;-78
2024/02/14 09:17:24;;;;;;;38.35;25.10;;;9.10;24.80;;;;;;4888152;29;20116;-79
2024/02/14 09:19:51;;;;;;;44.50;26.58;;;9.40;29.40;;;;;;4884992;29;20466;-79
2024/02/14 09:22:21;;;;;;;44.38;29.30;;;9.40;41.10;;;;;;4897155;29;20048;-79
2024/02/14 09:24:48;;;;;;;46.20;30.60;;;9.50;43.60;;;;;;4913147;29;20084;-79
2024/02/14 09:27:13;;;;;;;44.75;29.95;;;9.60;34.40;;;;;;4901142;29;20024;-78
2024/02/14 09:29:39;;;;;;;48.08;27.45;;;9.80;31.80;;;;;;4919888;29;20032;-79
2024/02/14 09:32:05;;;;;;;36.97;25.20;;;9.90;36.00;;;;;;4904116;29;20410;-78
2024/02/14 09:34:31;;;;;;;45.45;29.27;;;10.10;35.30;;;;;;4904730;29;20024;-79
2024/02/14 09:36:58;;;;;;;47.58;32.45;;;10.20;28.20;;;;;;4902728;29;20052;-79
2024/02/14 09:39:24;;;;;;;48.33;32.10;;;10.20;34.50;;;;;;4905346;29;20027;-79
2024/02/14 09:41:59;;;;;;;45.55;33.08;;;10.20;26.20;;;;;;4902038;29;20178;-79
2024/02/14 09:44:28;;;;;;;49.78;33.13;;;10.20;33.80;;;;;;4905923;29;20028;-79
2024/02/14 09:46:56;;;;;;;47.15;30.98;;;10.20;37.00;;;;;;4902653;29;20087;-79
2024/02/14 09:49:23;;;;;;;45.95;31.48;;;10.20;22.30;;;;;;4903430;29;20315;-79
2024/02/14 09:51:50;;;;;;;40.90;28.85;;;10.20;25.90;;;;;;4902805;29;20601;-78
2024/02/14 09:54:17;;;;;;;41.45;29.40;;;10.30;8.90;;;;;;4906187;29;20068;-79
2024/02/14 09:56:53;;;;;;;39.80;27.65;;;10.40;1.00;;;;;;4901745;29;20025;-79
2024/02/14 09:59:21;;;;;;;42.75;29.02;;;10.40;1.00;;;;;;4900528;29;20076;-79
2024/02/14 10:01:49;;;;;;;39.67;27.38;;;10.60;1.00;;;;;;4904519;29;20032;-79
2024/02/14 10:04:18;;;;;;;36.65;24.80;;;10.60;1.00;;;;;;4902696;29;20463;-78
2024/02/14 10:06:45;;;;;;;36.10;23.70;;;10.60;1.00;;;;;;4904211;29;20452;-79
2024/02/14 10:09:10;;;;;;;31.65;23.85;;;10.60;1.00;;;;;;4903989;29;20036;-78
2024/02/14 10:11:37;;;;;;;30.23;21.08;;;10.60;1.00;;;;;;4902351;29;20036;-79
2024/02/14 10:14:09;;;;;;;28.92;20.38;;;10.70;1.00;;;;;;4910898;29;20115;-79
2024/02/14 10:16:37;;;;;;;30.63;20.27;;;10.70;1.00;;;;;;4916579;29;20029;-79
2024/02/14 10:19:08;;;;;;;31.35;17.52;;;10.80;1.00;;;;;;4904237;29;20029;-79
2024/02/14 10:21:33;;;;;;;27.08;17.08;;;10.90;1.00;;;;;;4901918;29;20017;-79
2024/02/14 10:24:00;;;;;;;22.98;17.33;;;10.90;1.00;;;;;;4884985;29;20510;-79
2024/02/14 10:26:26;;;;;;;24.58;17.20;;;11.00;1.00;;;;;;4883846;29;20029;-78
2024/02/14 10:28:52;;;;;;;26.13;16.65;;;11.00;1.00;;;;;;4886505;29;20036;-78
2024/02/14 10:31:17;;;;;;;24.52;17.25;;;11.00;1.00;;;;;;4877134;29;20119;-79
2024/02/14 10:33:43;;;;;;;26.80;17.50;;;11.00;1.00;;;;;;4877991;29;20032;-78
2024/02/14 10:36:12;;;;;;;25.45;18.00;;;11.00;1.00;;;;;;4882713;29;20179;-79
2024/02/14 10:38:39;;;;;;;26.83;17.10;;;11.00;99.90;;;;;;4865502;29;20076;-78
2024/02/14 10:41:05;;;;;;;28.90;17.10;;;11.10;1.00;;;;;;4870181;29;20028;-78
2024/02/14 10:43:31;;;;;;;27.17;18.40;;;11.20;99.90;;;;;;4879023;29;20376;-79
2024/02/14 10:46:00;;;;;;;33.88;20.98;;;11.20;1.00;;;;;;4884234;29;20105;-78
2024/02/14 10:48:33;;;;;;;35.25;23.38;;;11.20;1.00;;;;;;4885223;29;20037;-78
2024/02/14 10:51:02;;;;;;;33.17;23.65;;;11.30;1.00;;;;;;4883199;29;20530;-78
2024/02/14 10:53:31;;;;;;;36.83;23.00;;;11.30;1.00;;;;;;4873649;29;20036;-79
2024/02/14 10:55:58;;;;;;;35.80;23.38;;;11.30;1.00;;;;;;4885849;29;20029;-79
2024/02/14 10:58:29;;;;;;;40.38;23.38;;;11.40;1.00;;;;;;4886434;29;20031;-79
2024/02/14 11:00:56;;;;;;;29.25;21.52;;;11.60;1.00;;;;;;4885062;29;20106;-78
2024/02/14 11:03:22;;;;;;;32.50;21.92;;;11.60;1.00;;;;;;4881301;29;20467;-78
2024/02/14 11:05:49;;;;;;;29.40;21.20;;;11.70;1.00;;;;;;4884986;29;20391;-78
2024/02/14 11:08:21;;;;;;;27.70;18.13;;;11.70;1.00;;;;;;4881754;29;20040;-78
2024/02/14 11:10:55;;;;;;;31.30;19.48;;;11.70;1.00;;;;;;4881168;29;20028;-78
2024/02/14 11:13:24;;;;;;;33.03;21.77;;;11.80;1.00;;;;;;4881699;29;20021;-79
2024/02/14 11:15:54;;;;;;;29.67;20.80;;;11.80;1.00;;;;;;4884241;29;20033;-79
2024/02/14 11:18:29;;;;;;;30.58;20.38;;;12.00;1.00;;;;;;4882415;29;20025;-79
2024/02/14 11:20:57;;;;;;;33.75;20.33;;;12.10;1.00;;;;;;4881958;29;20036;-79
2024/02/14 11:23:23;;;;;;;33.35;22.33;;;12.10;1.00;;;;;;4871990;29;20054;-79
2024/02/14 11:25:49;;;;;;;34.15;21.40;;;12.30;99.90;;;;;;4881110;29;20029;-78
2024/02/14 11:28:23;;;;;;;31.33;19.20;;;12.20;99.90;;;;;;4891311;29;20830;-79
2024/02/14 11:30:49;;;;;;;32.55;19.45;;;12.10;99.90;;;;;;4872726;29;20028;-79
2024/02/14 11:33:16;;;;;;;29.40;19.92;;;12.10;99.90;;;;;;4887940;29;20169;-78
2024/02/14 11:35:42;;;;;;;31.75;20.52;;;12.10;1.00;;;;;;4891833;29;20059;-79
2024/02/14 11:38:09;;;;;;;29.23;20.23;;;12.20;1.00;;;;;;4882091;29;20060;-78
2024/02/14 11:40:38;;;;;;;32.08;20.15;;;12.20;1.00;;;;;;4889417;29;20024;-79
2024/02/14 11:43:04;;;;;;;25.42;19.80;;;12.20;1.00;;;;;;4885709;29;20017;-78
2024/02/14 11:45:30;;;;;;;28.92;19.42;;;12.20;1.00;;;;;;4860229;29;20492;-78
2024/02/14 11:47:56;;;;;;;28.40;20.33;;;12.30;1.00;;;;;;4888834;29;20074;-79
2024/02/14 11:50:22;;;;;;;25.98;18.83;;;12.40;1.00;;;;;;4876920;29;20486;-79
2024/02/14 11:52:47;;;;;;;28.13;18.90;;;12.40;99.90;;;;;;4881030;29;20068;-79
2024/02/14 11:55:17;;;;;;;30.30;20.35;;;12.40;99.90;;;;;;4888134;29;20020;-79
2024/02/14 11:57:43;;;;;;;32.22;20.17;;;12.40;1.00;;;;;;4865489;29;20041;-79
2024/02/14 12:00:09;;;;;;;29.30;19.70;;;12.50;99.90;;;;;;4884893;29;20036;-79
2024/02/14 12:02:35;;;;;;;28.95;18.83;;;12.40;99.90;;;;;;4883603;29;20028;-79
2024/02/14 12:05:04;;;;;;;30.92;18.95;;;12.50;1.00;;;;;;4886126;29;20099;-78
2024/02/14 12:07:31;;;;;;;25.50;18.33;;;12.60;99.90;;;;;;4874572;29;20274;-77
2024/02/14 12:09:59;;;;;;;30.77;18.48;;;12.60;99.90;;;;;;4885044;29;20096;-77
2024/02/14 12:12:25;;;;;;;28.45;18.63;;;12.60;99.90;;;;;;4881661;29;20047;-77
2024/02/14 12:14:58;;;;;;;25.40;17.38;;;12.60;99.90;;;;;;4888557;29;20499;-77
2024/02/14 12:17:24;;;;;;;24.17;17.95;;;12.70;99.90;;;;;;4873746;29;20029;-77
2024/02/14 12:19:51;;;;;;;27.05;17.45;;;12.70;99.90;;;;;;4882707;29;20108;-77
2024/02/14 12:22:17;;;;;;;31.25;17.70;;;12.70;99.90;;;;;;4872557;29;20053;-77
2024/02/14 12:24:47;;;;;;;27.30;16.55;;;12.70;99.90;;;;;;4884059;29;20091;-77
2024/02/14 12:27:16;;;;;;;35.90;18.63;;;12.70;99.90;;;;;;4880546;29;20025;-77
2024/02/14 12:29:45;;;;;;;35.40;17.15;;;12.70;99.90;;;;;;4884571;29;20079;-77
2024/02/14 12:32:11;;;;;;;30.75;16.83;;;12.80;99.90;;;;;;4882419;29;20033;-77
2024/02/14 12:34:37;;;;;;;26.88;17.00;;;12.80;99.90;;;;;;4882706;29;20112;-77
2024/02/14 12:37:03;;;;;;;27.70;18.30;;;12.90;99.90;;;;;;4884425;29;20183;-77
2024/02/14 12:39:29;;;;;;;25.50;16.77;;;12.90;99.90;;;;;;4882591;29;20557;-77
2024/02/14 12:41:55;;;;;;;23.08;16.20;;;12.90;99.90;;;;;;4880316;29;20060;-77
2024/02/14 12:44:21;;;;;;;33.42;16.83;;;13.00;99.90;;;;;;4883885;29;20025;-77
2024/02/14 12:46:47;;;;;;;22.85;15.70;;;12.90;99.90;;;;;;4866727;29;20086;-77
2024/02/14 12:49:13;;;;;;;27.60;17.23;;;13.00;99.90;;;;;;4880934;29;20036;-77